sensor_id;sensor_type;location;lat;lon;timestamp;P1;durP1;ratioP1;P2;durP2;ratioP2
49384;SDS011;36795;45.028;38.968;2023-05-10T00:00:13;18.25;;;6.43;;
49384;SDS011;36795;45.028;38.968;2023-05-10T00:03:00;19.95;;;7.10;;
49384;SDS011;36795;45.028;38.968;2023-05-10T00:05:46;17.45;;;6.07;;
49384;SDS011;36795;45.028;38.968;2023-05-10T00:08:32;20.08;;;6.62;;
49384;SDS011;36795;45.028;38.968;2023-05-10T00:11:18;18.73;;;6.57;;
49384;SDS011;36795;45.028;38.968;2023-05-10T00:14:05;20.58;;;6.97;;
49384;SDS011;36795;45.028;38.968;2023-05-10T00:16:51;19.10;;;6.72;;
49384;SDS011;36795;45.028;38.968;2023-05-10T00:19:37;17.75;;;6.43;;
49384;SDS011;36795;45.028;38.968;2023-05-10T00:22:23;18.90;;;6.37;;
49384;SDS011;36795;45.028;38.968;2023-05-10T00:25:09;17.20;;;5.60;;
49384;SDS011;36795;45.028;38.968;2023-05-10T00:27:55;17.00;;;5.50;;
49384;SDS011;36795;45.028;38.968;2023-05-10T00:30:42;18.58;;;5.85;;
49384;SDS011;36795;45.028;38.968;2023-05-10T00:33:28;18.48;;;5.45;;
49384;SDS011;36795;45.028;38.968;2023-05-10T00:36:14;18.67;;;5.93;;
49384;SDS011;36795;45.028;38.968;2023-05-10T00:39:00;15.70;;;5.20;;
49384;SDS011;36795;45.028;38.968;2023-05-10T00:41:48;16.37;;;4.97;;
49384;SDS011;36795;45.028;38.968;2023-05-10T00:44:35;14.63;;;4.68;;
49384;SDS011;36795;45.028;38.968;2023-05-10T00:47:21;14.82;;;4.50;;
49384;SDS011;36795;45.028;38.968;2023-05-10T00:50:07;11.95;;;3.92;;
49384;SDS011;36795;45.028;38.968;2023-05-10T00:52:54;14.27;;;4.45;;
49384;SDS011;36795;45.028;38.968;2023-05-10T00:55:41;14.57;;;4.60;;
49384;SDS011;36795;45.028;38.968;2023-05-10T00:58:27;16.52;;;4.65;;
49384;SDS011;36795;45.028;38.968;2023-05-10T01:01:13;14.38;;;4.28;;
49384;SDS011;36795;45.028;38.968;2023-05-10T01:04:01;13.40;;;4.35;;
49384;SDS011;36795;45.028;38.968;2023-05-10T01:06:47;12.88;;;4.22;;
49384;SDS011;36795;45.028;38.968;2023-05-10T01:09:35;13.52;;;4.18;;
49384;SDS011;36795;45.028;38.968;2023-05-10T01:12:21;15.30;;;4.87;;
49384;SDS011;36795;45.028;38.968;2023-05-10T01:15:08;14.85;;;5.05;;
49384;SDS011;36795;45.028;38.968;2023-05-10T01:17:55;16.37;;;5.12;;
49384;SDS011;36795;45.028;38.968;2023-05-10T01:20:43;16.95;;;5.82;;
49384;SDS011;36795;45.028;38.968;2023-05-10T01:33:17;13.23;;;4.25;;
49384;SDS011;36795;45.028;38.968;2023-05-10T01:36:35;10.25;;;3.53;;
49384;SDS011;36795;45.028;38.968;2023-05-10T01:39:49;14.52;;;4.40;;
49384;SDS011;36795;45.028;38.968;2023-05-10T01:42:44;10.80;;;3.83;;
49384;SDS011;36795;45.028;38.968;2023-05-10T01:45:45;12.45;;;3.97;;
49384;SDS011;36795;45.028;38.968;2023-05-10T01:48:41;11.73;;;3.78;;
49384;SDS011;36795;45.028;38.968;2023-05-10T01:51:45;12.13;;;3.87;;
49384;SDS011;36795;45.028;38.968;2023-05-10T01:54:41;10.25;;;3.67;;
49384;SDS011;36795;45.028;38.968;2023-05-10T01:57:35;13.00;;;4.10;;
49384;SDS011;36795;45.028;38.968;2023-05-10T02:00:24;8.73;;;3.33;;
49384;SDS011;36795;45.028;38.968;2023-05-10T02:03:12;14.60;;;4.55;;
49384;SDS011;36795;45.028;38.968;2023-05-10T02:05:59;12.02;;;4.10;;
49384;SDS011;36795;45.028;38.968;2023-05-10T02:08:47;11.00;;;3.65;;
49384;SDS011;36795;45.028;38.968;2023-05-10T02:11:34;13.70;;;4.20;;
49384;SDS011;36795;45.028;38.968;2023-05-10T02:14:22;14.05;;;4.25;;
49384;SDS011;36795;45.028;38.968;2023-05-10T02:17:11;14.23;;;3.95;;
49384;SDS011;36795;45.028;38.968;2023-05-10T02:19:58;13.82;;;4.40;;
49384;SDS011;36795;45.028;38.968;2023-05-10T02:22:47;14.65;;;4.68;;
49384;SDS011;36795;45.028;38.968;2023-05-10T02:25:35;15.43;;;5.00;;
49384;SDS011;36795;45.028;38.968;2023-05-10T02:28:24;15.30;;;4.78;;
49384;SDS011;36795;45.028;38.968;2023-05-10T02:31:11;15.25;;;4.60;;
49384;SDS011;36795;45.028;38.968;2023-05-10T02:33:58;15.20;;;4.78;;
49384;SDS011;36795;45.028;38.968;2023-05-10T02:36:45;14.80;;;4.45;;
49384;SDS011;36795;45.028;38.968;2023-05-10T02:39:32;16.10;;;4.25;;
49384;SDS011;36795;45.028;38.968;2023-05-10T02:42:18;15.85;;;5.12;;
49384;SDS011;36795;45.028;38.968;2023-05-10T02:45:10;15.18;;;4.90;;
49384;SDS011;36795;45.028;38.968;2023-05-10T02:47:58;13.55;;;4.12;;
49384;SDS011;36795;45.028;38.968;2023-05-10T02:50:45;14.85;;;4.80;;
49384;SDS011;36795;45.028;38.968;2023-05-10T02:53:36;15.68;;;4.25;;
49384;SDS011;36795;45.028;38.968;2023-05-10T02:56:31;12.80;;;4.40;;
49384;SDS011;36795;45.028;38.968;2023-05-10T02:59:20;13.20;;;4.40;;
49384;SDS011;36795;45.028;38.968;2023-05-10T03:02:07;14.85;;;4.07;;
49384;SDS011;36795;45.028;38.968;2023-05-10T03:04:53;16.02;;;4.55;;
49384;SDS011;36795;45.028;38.968;2023-05-10T03:07:40;15.27;;;4.80;;
49384;SDS011;36795;45.028;38.968;2023-05-10T03:10:27;16.23;;;5.25;;
49384;SDS011;36795;45.028;38.968;2023-05-10T03:16:32;13.18;;;4.70;;
49384;SDS011;36795;45.028;38.968;2023-05-10T03:20:12;13.10;;;4.35;;
49384;SDS011;36795;45.028;38.968;2023-05-10T03:22:44;18.33;;;4.80;;
49384;SDS011;36795;45.028;38.968;2023-05-10T03:25:33;12.57;;;3.75;;
49384;SDS011;36795;45.028;38.968;2023-05-10T03:28:20;14.65;;;3.97;;
49384;SDS011;36795;45.028;38.968;2023-05-10T03:31:07;14.48;;;3.85;;
49384;SDS011;36795;45.028;38.968;2023-05-10T03:33:55;13.02;;;3.90;;
49384;SDS011;36795;45.028;38.968;2023-05-10T03:36:41;13.35;;;3.92;;
49384;SDS011;36795;45.028;38.968;2023-05-10T03:39:28;11.23;;;4.03;;
49384;SDS011;36795;45.028;38.968;2023-05-10T03:42:14;12.93;;;3.70;;
49384;SDS011;36795;45.028;38.968;2023-05-10T03:45:02;12.05;;;3.37;;
49384;SDS011;36795;45.028;38.968;2023-05-10T03:47:49;10.05;;;3.08;;
49384;SDS011;36795;45.028;38.968;2023-05-10T03:50:35;6.75;;;2.78;;
49384;SDS011;36795;45.028;38.968;2023-05-10T03:53:21;7.43;;;2.62;;
49384;SDS011;36795;45.028;38.968;2023-05-10T03:56:08;12.60;;;3.40;;
49384;SDS011;36795;45.028;38.968;2023-05-10T03:58:54;11.00;;;3.33;;
49384;SDS011;36795;45.028;38.968;2023-05-10T04:01:40;8.25;;;2.25;;
49384;SDS011;36795;45.028;38.968;2023-05-10T04:04:27;6.35;;;1.90;;
49384;SDS011;36795;45.028;38.968;2023-05-10T04:07:13;6.85;;;1.92;;
49384;SDS011;36795;45.028;38.968;2023-05-10T04:09:59;4.93;;;1.60;;
49384;SDS011;36795;45.028;38.968;2023-05-10T04:12:45;9.23;;;2.05;;
49384;SDS011;36795;45.028;38.968;2023-05-10T04:15:31;7.12;;;2.20;;
49384;SDS011;36795;45.028;38.968;2023-05-10T04:18:17;6.93;;;2.25;;
49384;SDS011;36795;45.028;38.968;2023-05-10T04:21:04;9.73;;;2.50;;
49384;SDS011;36795;45.028;38.968;2023-05-10T04:23:55;4.57;;;1.70;;
49384;SDS011;36795;45.028;38.968;2023-05-10T04:26:42;10.00;;;2.92;;
49384;SDS011;36795;45.028;38.968;2023-05-10T04:29:27;12.23;;;2.75;;
49384;SDS011;36795;45.028;38.968;2023-05-10T04:32:14;6.65;;;2.30;;
49384;SDS011;36795;45.028;38.968;2023-05-10T04:35:01;6.05;;;2.10;;
49384;SDS011;36795;45.028;38.968;2023-05-10T04:37:49;8.73;;;2.20;;
49384;SDS011;36795;45.028;38.968;2023-05-10T04:40:34;11.07;;;2.60;;
49384;SDS011;36795;45.028;38.968;2023-05-10T04:43:21;9.18;;;2.40;;
49384;SDS011;36795;45.028;38.968;2023-05-10T04:46:06;9.95;;;2.62;;
49384;SDS011;36795;45.028;38.968;2023-05-10T04:48:53;10.75;;;2.55;;
49384;SDS011;36795;45.028;38.968;2023-05-10T04:51:39;9.45;;;2.78;;
49384;SDS011;36795;45.028;38.968;2023-05-10T04:54:25;13.85;;;3.03;;
49384;SDS011;36795;45.028;38.968;2023-05-10T04:57:11;16.98;;;3.53;;
49384;SDS011;36795;45.028;38.968;2023-05-10T04:59:57;9.10;;;2.78;;
49384;SDS011;36795;45.028;38.968;2023-05-10T05:02:44;10.00;;;2.78;;
49384;SDS011;36795;45.028;38.968;2023-05-10T05:05:31;5.90;;;2.58;;
49384;SDS011;36795;45.028;38.968;2023-05-10T05:08:17;13.90;;;3.50;;
49384;SDS011;36795;45.028;38.968;2023-05-10T05:11:03;11.95;;;3.42;;
49384;SDS011;36795;45.028;38.968;2023-05-10T05:13:49;14.27;;;3.67;;
49384;SDS011;36795;45.028;38.968;2023-05-10T05:16:35;13.32;;;3.58;;
49384;SDS011;36795;45.028;38.968;2023-05-10T05:19:21;18.30;;;4.95;;
49384;SDS011;36795;45.028;38.968;2023-05-10T05:22:08;15.68;;;3.85;;
49384;SDS011;36795;45.028;38.968;2023-05-10T05:24:54;11.73;;;3.40;;
49384;SDS011;36795;45.028;38.968;2023-05-10T05:27:41;11.80;;;3.47;;
49384;SDS011;36795;45.028;38.968;2023-05-10T05:30:27;11.80;;;3.25;;
49384;SDS011;36795;45.028;38.968;2023-05-10T05:33:13;15.40;;;4.10;;
49384;SDS011;36795;45.028;38.968;2023-05-10T05:36:00;12.82;;;3.55;;
49384;SDS011;36795;45.028;38.968;2023-05-10T05:38:47;18.80;;;4.43;;
49384;SDS011;36795;45.028;38.968;2023-05-10T05:41:33;13.82;;;4.03;;
49384;SDS011;36795;45.028;38.968;2023-05-10T05:44:19;13.00;;;3.60;;
49384;SDS011;36795;45.028;38.968;2023-05-10T05:47:05;14.57;;;4.20;;
49384;SDS011;36795;45.028;38.968;2023-05-10T05:49:52;13.40;;;3.78;;
49384;SDS011;36795;45.028;38.968;2023-05-10T05:52:37;11.45;;;3.37;;
49384;SDS011;36795;45.028;38.968;2023-05-10T05:55:24;11.52;;;3.95;;
49384;SDS011;36795;45.028;38.968;2023-05-10T05:58:11;22.83;;;4.75;;
49384;SDS011;36795;45.028;38.968;2023-05-10T06:00:57;12.65;;;3.40;;
49384;SDS011;36795;45.028;38.968;2023-05-10T06:03:43;11.75;;;3.55;;
49384;SDS011;36795;45.028;38.968;2023-05-10T06:06:30;19.50;;;4.43;;
49384;SDS011;36795;45.028;38.968;2023-05-10T06:09:17;13.75;;;4.12;;
49384;SDS011;36795;45.028;38.968;2023-05-10T06:12:03;17.15;;;4.95;;
49384;SDS011;36795;45.028;38.968;2023-05-10T06:14:49;12.10;;;3.72;;
49384;SDS011;36795;45.028;38.968;2023-05-10T06:17:35;14.30;;;4.07;;
49384;SDS011;36795;45.028;38.968;2023-05-10T06:20:21;23.30;;;5.25;;
49384;SDS011;36795;45.028;38.968;2023-05-10T06:23:07;14.93;;;4.00;;
49384;SDS011;36795;45.028;38.968;2023-05-10T06:25:53;13.93;;;4.00;;
49384;SDS011;36795;45.028;38.968;2023-05-10T06:28:40;12.70;;;3.70;;
49384;SDS011;36795;45.028;38.968;2023-05-10T06:31:26;14.05;;;3.97;;
49384;SDS011;36795;45.028;38.968;2023-05-10T06:34:12;18.23;;;4.20;;
49384;SDS011;36795;45.028;38.968;2023-05-10T06:36:59;16.25;;;4.45;;
49384;SDS011;36795;45.028;38.968;2023-05-10T06:39:44;17.77;;;4.30;;
49384;SDS011;36795;45.028;38.968;2023-05-10T06:42:31;23.10;;;8.00;;
49384;SDS011;36795;45.028;38.968;2023-05-10T06:45:16;14.57;;;4.05;;
49384;SDS011;36795;45.028;38.968;2023-05-10T06:48:03;15.43;;;4.25;;
49384;SDS011;36795;45.028;38.968;2023-05-10T06:50:49;13.80;;;3.72;;
49384;SDS011;36795;45.028;38.968;2023-05-10T06:53:35;11.77;;;3.22;;
49384;SDS011;36795;45.028;38.968;2023-05-10T06:56:21;8.30;;;2.85;;
49384;SDS011;36795;45.028;38.968;2023-05-10T06:59:07;10.93;;;2.62;;
49384;SDS011;36795;45.028;38.968;2023-05-10T07:01:53;19.23;;;5.30;;
49384;SDS011;36795;45.028;38.968;2023-05-10T07:04:39;8.90;;;2.95;;
49384;SDS011;36795;45.028;38.968;2023-05-10T07:07:25;15.95;;;3.20;;
49384;SDS011;36795;45.028;38.968;2023-05-10T07:10:11;10.23;;;2.78;;
49384;SDS011;36795;45.028;38.968;2023-05-10T07:12:57;11.68;;;3.00;;
49384;SDS011;36795;45.028;38.968;2023-05-10T07:15:43;10.35;;;3.05;;
49384;SDS011;36795;45.028;38.968;2023-05-10T07:18:29;7.72;;;2.42;;
49384;SDS011;36795;45.028;38.968;2023-05-10T07:21:15;7.18;;;2.20;;
49384;SDS011;36795;45.028;38.968;2023-05-10T07:24:01;7.75;;;2.12;;
49384;SDS011;36795;45.028;38.968;2023-05-10T07:26:48;5.55;;;2.20;;
49384;SDS011;36795;45.028;38.968;2023-05-10T07:29:34;8.27;;;2.20;;
49384;SDS011;36795;45.028;38.968;2023-05-10T07:32:21;8.57;;;2.20;;
49384;SDS011;36795;45.028;38.968;2023-05-10T07:35:07;9.82;;;2.80;;
49384;SDS011;36795;45.028;38.968;2023-05-10T07:37:53;9.95;;;2.70;;
49384;SDS011;36795;45.028;38.968;2023-05-10T07:40:39;16.30;;;3.12;;
49384;SDS011;36795;45.028;38.968;2023-05-10T07:43:25;10.77;;;2.30;;
49384;SDS011;36795;45.028;38.968;2023-05-10T07:46:11;7.75;;;2.28;;
49384;SDS011;36795;45.028;38.968;2023-05-10T07:48:58;8.07;;;2.50;;
49384;SDS011;36795;45.028;38.968;2023-05-10T07:51:43;11.55;;;2.37;;
49384;SDS011;36795;45.028;38.968;2023-05-10T07:54:29;9.32;;;2.35;;
49384;SDS011;36795;45.028;38.968;2023-05-10T07:57:15;7.40;;;2.10;;
49384;SDS011;36795;45.028;38.968;2023-05-10T08:00:03;8.98;;;2.30;;
49384;SDS011;36795;45.028;38.968;2023-05-10T08:02:58;10.90;;;2.30;;
49384;SDS011;36795;45.028;38.968;2023-05-10T08:05:44;13.68;;;2.65;;
49384;SDS011;36795;45.028;38.968;2023-05-10T08:08:30;12.32;;;2.95;;
49384;SDS011;36795;45.028;38.968;2023-05-10T08:11:17;10.00;;;2.80;;
49384;SDS011;36795;45.028;38.968;2023-05-10T08:14:03;12.55;;;2.35;;
49384;SDS011;36795;45.028;38.968;2023-05-10T08:16:49;14.73;;;2.70;;
49384;SDS011;36795;45.028;38.968;2023-05-10T08:19:35;10.43;;;2.47;;
49384;SDS011;36795;45.028;38.968;2023-05-10T08:22:21;14.87;;;2.95;;
49384;SDS011;36795;45.028;38.968;2023-05-10T08:25:07;7.05;;;2.50;;
49384;SDS011;36795;45.028;38.968;2023-05-10T08:27:53;7.57;;;2.47;;
49384;SDS011;36795;45.028;38.968;2023-05-10T08:30:39;12.45;;;2.58;;
49384;SDS011;36795;45.028;38.968;2023-05-10T08:33:25;8.60;;;2.55;;
49384;SDS011;36795;45.028;38.968;2023-05-10T08:36:11;7.87;;;2.30;;
49384;SDS011;36795;45.028;38.968;2023-05-10T08:38:59;11.18;;;2.60;;
49384;SDS011;36795;45.028;38.968;2023-05-10T08:41:45;14.18;;;2.80;;
49384;SDS011;36795;45.028;38.968;2023-05-10T08:44:34;7.15;;;2.60;;
49384;SDS011;36795;45.028;38.968;2023-05-10T08:47:21;7.60;;;2.53;;
49384;SDS011;36795;45.028;38.968;2023-05-10T08:50:08;10.55;;;2.78;;
49384;SDS011;36795;45.028;38.968;2023-05-10T08:52:55;18.15;;;3.12;;
49384;SDS011;36795;45.028;38.968;2023-05-10T08:55:45;11.23;;;2.60;;
49384;SDS011;36795;45.028;38.968;2023-05-10T08:58:31;12.93;;;3.97;;
49384;SDS011;36795;45.028;38.968;2023-05-10T09:01:18;10.05;;;2.60;;
49384;SDS011;36795;45.028;38.968;2023-05-10T09:04:04;8.60;;;2.20;;
49384;SDS011;36795;45.028;38.968;2023-05-10T09:06:51;9.10;;;2.30;;
49384;SDS011;36795;45.028;38.968;2023-05-10T09:09:37;9.20;;;2.37;;
49384;SDS011;36795;45.028;38.968;2023-05-10T09:12:23;4.68;;;1.40;;
49384;SDS011;36795;45.028;38.968;2023-05-10T09:15:09;6.60;;;1.85;;
49384;SDS011;36795;45.028;38.968;2023-05-10T09:18:00;3.85;;;1.10;;
49384;SDS011;36795;45.028;38.968;2023-05-10T09:20:48;5.93;;;1.70;;
49384;SDS011;36795;45.028;38.968;2023-05-10T09:23:34;8.15;;;2.20;;
49384;SDS011;36795;45.028;38.968;2023-05-10T09:26:23;8.27;;;1.85;;
49384;SDS011;36795;45.028;38.968;2023-05-10T09:29:09;14.05;;;3.10;;
49384;SDS011;36795;45.028;38.968;2023-05-10T09:31:55;8.38;;;2.12;;
49384;SDS011;36795;45.028;38.968;2023-05-10T09:34:41;8.93;;;2.00;;
49384;SDS011;36795;45.028;38.968;2023-05-10T09:37:30;6.40;;;1.90;;
49384;SDS011;36795;45.028;38.968;2023-05-10T09:40:17;10.90;;;2.87;;
49384;SDS011;36795;45.028;38.968;2023-05-10T09:43:08;19.37;;;2.83;;
49384;SDS011;36795;45.028;38.968;2023-05-10T09:45:56;8.55;;;1.80;;
49384;SDS011;36795;45.028;38.968;2023-05-10T09:48:42;9.10;;;2.00;;
49384;SDS011;36795;45.028;38.968;2023-05-10T09:51:30;10.45;;;2.50;;
49384;SDS011;36795;45.028;38.968;2023-05-10T09:54:17;7.43;;;1.92;;
49384;SDS011;36795;45.028;38.968;2023-05-10T09:57:04;10.10;;;2.00;;
49384;SDS011;36795;45.028;38.968;2023-05-10T09:59:49;9.68;;;1.98;;
49384;SDS011;36795;45.028;38.968;2023-05-10T10:02:36;9.70;;;2.37;;
49384;SDS011;36795;45.028;38.968;2023-05-10T10:05:29;4.05;;;1.70;;
49384;SDS011;36795;45.028;38.968;2023-05-10T10:08:20;19.60;;;4.00;;
49384;SDS011;36795;45.028;38.968;2023-05-10T10:11:07;9.20;;;2.28;;
49384;SDS011;36795;45.028;38.968;2023-05-10T10:13:53;15.60;;;2.92;;
49384;SDS011;36795;45.028;38.968;2023-05-10T10:16:39;6.20;;;1.90;;
49384;SDS011;36795;45.028;38.968;2023-05-10T10:19:25;8.27;;;2.00;;
49384;SDS011;36795;45.028;38.968;2023-05-10T10:22:12;12.57;;;2.37;;
49384;SDS011;36795;45.028;38.968;2023-05-10T10:24:58;8.10;;;2.70;;
49384;SDS011;36795;45.028;38.968;2023-05-10T10:30:47;8.95;;;2.30;;
49384;SDS011;36795;45.028;38.968;2023-05-10T10:36:46;12.60;;;2.53;;
49384;SDS011;36795;45.028;38.968;2023-05-10T10:39:33;10.70;;;2.22;;
49384;SDS011;36795;45.028;38.968;2023-05-10T10:42:43;11.60;;;3.25;;
49384;SDS011;36795;45.028;38.968;2023-05-10T10:45:31;8.95;;;2.20;;
49384;SDS011;36795;45.028;38.968;2023-05-10T10:48:22;12.48;;;2.40;;
49384;SDS011;36795;45.028;38.968;2023-05-10T10:51:10;10.48;;;2.30;;
49384;SDS011;36795;45.028;38.968;2023-05-10T10:54:08;8.80;;;2.40;;
49384;SDS011;36795;45.028;38.968;2023-05-10T10:57:10;13.23;;;2.85;;
49384;SDS011;36795;45.028;38.968;2023-05-10T11:03:13;12.65;;;2.97;;
49384;SDS011;36795;45.028;38.968;2023-05-10T11:06:01;9.32;;;2.35;;
49384;SDS011;36795;45.028;38.968;2023-05-10T11:08:47;17.12;;;4.22;;
49384;SDS011;36795;45.028;38.968;2023-05-10T11:11:34;10.90;;;2.53;;
49384;SDS011;36795;45.028;38.968;2023-05-10T11:14:21;9.90;;;2.40;;
49384;SDS011;36795;45.028;38.968;2023-05-10T11:17:23;12.02;;;2.35;;
49384;SDS011;36795;45.028;38.968;2023-05-10T11:20:14;8.80;;;2.40;;
49384;SDS011;36795;45.028;38.968;2023-05-10T11:23:10;10.82;;;2.30;;
49384;SDS011;36795;45.028;38.968;2023-05-10T11:26:01;10.32;;;2.37;;
49384;SDS011;36795;45.028;38.968;2023-05-10T11:28:47;10.80;;;2.15;;
49384;SDS011;36795;45.028;38.968;2023-05-10T11:31:34;12.07;;;2.40;;
49384;SDS011;36795;45.028;38.968;2023-05-10T11:34:30;12.75;;;2.40;;
49384;SDS011;36795;45.028;38.968;2023-05-10T11:37:18;14.60;;;2.53;;
49384;SDS011;36795;45.028;38.968;2023-05-10T11:40:04;14.57;;;2.47;;
49384;SDS011;36795;45.028;38.968;2023-05-10T11:42:51;13.75;;;3.03;;
49384;SDS011;36795;45.028;38.968;2023-05-10T11:45:40;8.57;;;2.42;;
49384;SDS011;36795;45.028;38.968;2023-05-10T11:48:27;6.45;;;2.35;;
49384;SDS011;36795;45.028;38.968;2023-05-10T11:51:15;8.48;;;2.25;;
49384;SDS011;36795;45.028;38.968;2023-05-10T11:54:06;12.20;;;2.60;;
49384;SDS011;36795;45.028;38.968;2023-05-10T11:56:54;12.68;;;2.83;;
49384;SDS011;36795;45.028;38.968;2023-05-10T11:59:40;7.47;;;2.70;;
49384;SDS011;36795;45.028;38.968;2023-05-10T12:02:25;9.05;;;2.60;;
49384;SDS011;36795;45.028;38.968;2023-05-10T12:05:12;6.68;;;2.20;;
49384;SDS011;36795;45.028;38.968;2023-05-10T12:08:14;8.05;;;2.25;;
49384;SDS011;36795;45.028;38.968;2023-05-10T12:11:08;9.88;;;2.40;;
49384;SDS011;36795;45.028;38.968;2023-05-10T12:13:58;9.27;;;2.28;;
49384;SDS011;36795;45.028;38.968;2023-05-10T12:16:44;7.47;;;2.42;;
49384;SDS011;36795;45.028;38.968;2023-05-10T12:19:36;9.57;;;2.30;;
49384;SDS011;36795;45.028;38.968;2023-05-10T12:22:24;8.98;;;2.45;;
49384;SDS011;36795;45.028;38.968;2023-05-10T12:25:10;13.13;;;2.55;;
49384;SDS011;36795;45.028;38.968;2023-05-10T12:27:57;6.18;;;2.20;;
49384;SDS011;36795;45.028;38.968;2023-05-10T12:30:45;4.93;;;2.08;;
49384;SDS011;36795;45.028;38.968;2023-05-10T12:33:35;9.52;;;2.60;;
49384;SDS011;36795;45.028;38.968;2023-05-10T12:36:23;10.23;;;2.30;;
49384;SDS011;36795;45.028;38.968;2023-05-10T12:39:10;7.53;;;2.35;;
49384;SDS011;36795;45.028;38.968;2023-05-10T12:41:56;11.88;;;3.33;;
49384;SDS011;36795;45.028;38.968;2023-05-10T12:44:42;10.68;;;2.15;;
49384;SDS011;36795;45.028;38.968;2023-05-10T12:47:28;6.22;;;2.40;;
49384;SDS011;36795;45.028;38.968;2023-05-10T12:50:15;10.23;;;2.50;;
49384;SDS011;36795;45.028;38.968;2023-05-10T12:53:01;7.53;;;2.15;;
49384;SDS011;36795;45.028;38.968;2023-05-10T12:55:48;8.45;;;2.60;;
49384;SDS011;36795;45.028;38.968;2023-05-10T12:58:34;7.60;;;2.42;;
49384;SDS011;36795;45.028;38.968;2023-05-10T13:01:20;8.65;;;2.60;;
49384;SDS011;36795;45.028;38.968;2023-05-10T13:04:06;8.18;;;2.50;;
49384;SDS011;36795;45.028;38.968;2023-05-10T13:06:52;8.25;;;2.25;;
49384;SDS011;36795;45.028;38.968;2023-05-10T13:09:40;7.90;;;2.17;;
49384;SDS011;36795;45.028;38.968;2023-05-10T13:12:27;8.95;;;2.65;;
49384;SDS011;36795;45.028;38.968;2023-05-10T13:15:12;12.05;;;2.42;;
49384;SDS011;36795;45.028;38.968;2023-05-10T13:17:58;18.50;;;3.90;;
49384;SDS011;36795;45.028;38.968;2023-05-10T13:20:44;5.90;;;2.37;;
49384;SDS011;36795;45.028;38.968;2023-05-10T13:23:30;8.55;;;2.60;;
49384;SDS011;36795;45.028;38.968;2023-05-10T13:26:16;10.32;;;2.55;;
49384;SDS011;36795;45.028;38.968;2023-05-10T13:29:03;9.45;;;2.53;;
49384;SDS011;36795;45.028;38.968;2023-05-10T13:31:49;7.03;;;2.65;;
49384;SDS011;36795;45.028;38.968;2023-05-10T13:34:35;10.27;;;2.60;;
49384;SDS011;36795;45.028;38.968;2023-05-10T13:37:21;11.05;;;2.62;;
49384;SDS011;36795;45.028;38.968;2023-05-10T13:40:09;13.13;;;3.22;;
49384;SDS011;36795;45.028;38.968;2023-05-10T13:42:55;10.38;;;2.55;;
49384;SDS011;36795;45.028;38.968;2023-05-10T13:45:41;9.95;;;2.53;;
49384;SDS011;36795;45.028;38.968;2023-05-10T13:48:27;9.00;;;2.47;;
49384;SDS011;36795;45.028;38.968;2023-05-10T13:51:13;14.50;;;3.05;;
49384;SDS011;36795;45.028;38.968;2023-05-10T13:53:59;8.48;;;2.50;;
49384;SDS011;36795;45.028;38.968;2023-05-10T13:56:46;11.65;;;2.92;;
49384;SDS011;36795;45.028;38.968;2023-05-10T13:59:32;8.52;;;2.40;;
49384;SDS011;36795;45.028;38.968;2023-05-10T14:02:18;11.20;;;2.50;;
49384;SDS011;36795;45.028;38.968;2023-05-10T14:05:05;18.08;;;4.90;;
49384;SDS011;36795;45.028;38.968;2023-05-10T14:07:51;17.85;;;4.35;;
49384;SDS011;36795;45.028;38.968;2023-05-10T14:10:38;13.38;;;3.00;;
49384;SDS011;36795;45.028;38.968;2023-05-10T14:13:24;11.70;;;2.72;;
49384;SDS011;36795;45.028;38.968;2023-05-10T14:16:10;14.40;;;2.95;;
49384;SDS011;36795;45.028;38.968;2023-05-10T14:18:56;10.20;;;2.92;;
49384;SDS011;36795;45.028;38.968;2023-05-10T14:21:42;11.73;;;2.72;;
49384;SDS011;36795;45.028;38.968;2023-05-10T14:24:28;22.52;;;4.20;;
49384;SDS011;36795;45.028;38.968;2023-05-10T14:27:14;19.33;;;2.83;;
49384;SDS011;36795;45.028;38.968;2023-05-10T14:30:01;13.40;;;2.72;;
49384;SDS011;36795;45.028;38.968;2023-05-10T14:32:47;14.23;;;3.05;;
49384;SDS011;36795;45.028;38.968;2023-05-10T14:35:33;18.62;;;3.05;;
49384;SDS011;36795;45.028;38.968;2023-05-10T14:38:19;7.75;;;2.33;;
49384;SDS011;36795;45.028;38.968;2023-05-10T14:41:05;11.25;;;2.40;;
49384;SDS011;36795;45.028;38.968;2023-05-10T14:43:51;13.65;;;3.15;;
49384;SDS011;36795;45.028;38.968;2023-05-10T14:46:37;10.13;;;2.92;;
49384;SDS011;36795;45.028;38.968;2023-05-10T14:49:24;7.68;;;2.20;;
49384;SDS011;36795;45.028;38.968;2023-05-10T14:52:11;9.02;;;2.40;;
49384;SDS011;36795;45.028;38.968;2023-05-10T14:54:57;16.90;;;7.97;;
49384;SDS011;36795;45.028;38.968;2023-05-10T14:57:45;15.10;;;2.95;;
49384;SDS011;36795;45.028;38.968;2023-05-10T15:00:32;14.48;;;3.47;;
49384;SDS011;36795;45.028;38.968;2023-05-10T15:03:18;11.88;;;2.47;;
49384;SDS011;36795;45.028;38.968;2023-05-10T15:06:05;23.87;;;3.33;;
49384;SDS011;36795;45.028;38.968;2023-05-10T15:08:51;9.07;;;2.42;;
49384;SDS011;36795;45.028;38.968;2023-05-10T15:11:37;12.30;;;2.75;;
49384;SDS011;36795;45.028;38.968;2023-05-10T15:14:23;12.27;;;2.62;;
49384;SDS011;36795;45.028;38.968;2023-05-10T15:17:09;13.10;;;2.62;;
49384;SDS011;36795;45.028;38.968;2023-05-10T15:19:55;19.52;;;3.17;;
49384;SDS011;36795;45.028;38.968;2023-05-10T15:22:41;7.72;;;2.65;;
49384;SDS011;36795;45.028;38.968;2023-05-10T15:25:27;16.37;;;3.55;;
49384;SDS011;36795;45.028;38.968;2023-05-10T15:28:14;9.30;;;2.58;;
49384;SDS011;36795;45.028;38.968;2023-05-10T15:30:59;7.30;;;2.30;;
49384;SDS011;36795;45.028;38.968;2023-05-10T15:33:45;14.68;;;3.72;;
49384;SDS011;36795;45.028;38.968;2023-05-10T15:36:31;13.95;;;2.55;;
49384;SDS011;36795;45.028;38.968;2023-05-10T15:39:18;13.27;;;2.83;;
49384;SDS011;36795;45.028;38.968;2023-05-10T15:42:04;13.18;;;3.00;;
49384;SDS011;36795;45.028;38.968;2023-05-10T15:44:50;9.60;;;2.70;;
49384;SDS011;36795;45.028;38.968;2023-05-10T15:47:36;12.05;;;2.70;;
49384;SDS011;36795;45.028;38.968;2023-05-10T15:50:24;12.10;;;3.05;;
49384;SDS011;36795;45.028;38.968;2023-05-10T15:53:11;11.93;;;2.65;;
49384;SDS011;36795;45.028;38.968;2023-05-10T15:55:57;11.90;;;2.65;;
49384;SDS011;36795;45.028;38.968;2023-05-10T15:58:43;10.55;;;2.78;;
49384;SDS011;36795;45.028;38.968;2023-05-10T16:01:29;19.02;;;4.00;;
49384;SDS011;36795;45.028;38.968;2023-05-10T16:04:17;8.27;;;2.80;;
49384;SDS011;36795;45.028;38.968;2023-05-10T16:07:02;13.93;;;3.85;;
49384;SDS011;36795;45.028;38.968;2023-05-10T16:09:49;14.68;;;3.67;;
49384;SDS011;36795;45.028;38.968;2023-05-10T16:12:35;14.35;;;2.90;;
49384;SDS011;36795;45.028;38.968;2023-05-10T16:15:21;10.75;;;2.87;;
49384;SDS011;36795;45.028;38.968;2023-05-10T16:18:07;13.07;;;3.00;;
49384;SDS011;36795;45.028;38.968;2023-05-10T16:20:54;17.55;;;3.83;;
49384;SDS011;36795;45.028;38.968;2023-05-10T16:23:40;13.70;;;3.60;;
49384;SDS011;36795;45.028;38.968;2023-05-10T16:26:26;19.73;;;4.40;;
49384;SDS011;36795;45.028;38.968;2023-05-10T16:29:12;19.77;;;4.15;;
49384;SDS011;36795;45.028;38.968;2023-05-10T16:31:58;12.18;;;3.42;;
49384;SDS011;36795;45.028;38.968;2023-05-10T16:34:44;18.27;;;4.80;;
49384;SDS011;36795;45.028;38.968;2023-05-10T16:37:30;19.05;;;4.30;;
49384;SDS011;36795;45.028;38.968;2023-05-10T16:40:16;16.33;;;4.43;;
49384;SDS011;36795;45.028;38.968;2023-05-10T16:43:03;20.10;;;4.50;;
49384;SDS011;36795;45.028;38.968;2023-05-10T16:45:48;17.98;;;4.20;;